This demonstration page uses our WeatherBlox Daily Observations layout. Learn more.

39.92423, -83.80882

Hourly Observations for September 20, 2018

Temp ( °F °C ) Dew Point ( °F °C ) Humidity (%) Winds ( mph kmh ) Pressure ( in mb ) Visibility ( mi km ) Precip ( " mm )
1:56 am 01:56 Clear 69 20.6 68 20 96 96 E 8 13 30.03 1017 10 16.0934 0 0
2:56 am 02:56 Clear 69 20.6 68 20 96 96 ESE 8 13 30.03 1017 10 16.0934 0 0
3:56 am 03:56 Clear 67 19.4 67 19.4 100 100 ESE 5 7 30.04 1017 10 16.0934 0 0
4:56 am 04:56 Clear 67 19.4 67 19.4 100 100 ESE 7 11 30.04 1017 10 16.0934 0 0
5:56 am 05:56 Clear 68 20 68 20 100 100 SE 7 11 30.05 1018 10 16.0934 0 0
6:56 am 06:56 Mostly Cloudy 68 20 68 20 100 100 SSE 5 7 30.06 1018 9 14.48406 0 0
7:56 am 07:56 Sunny 69 20.6 69 20.6 100 100 SSE 5 7 30.07 1018 8 12.87472 0 0
9:56 am 09:56 Sunny 79 26.1 71 21.7 77 77 SSW 7 11 30.09 1019 10 16.0934 0 0
10:56 am 10:56 Sunny 84 28.9 71 21.7 65 65 SSW 6 9 30.09 1019 10 16.0934 0 0
11:56 am 11:56 Sunny 86 30 71 21.7 61 61 SW 8 13 30.08 1019 10 16.0934 0 0
12:56 pm 12:56 Sunny 88 31.1 71 21.7 57 57 SW 14 22 30.07 1018 10 16.0934 0 0
1:56 pm 13:56 Mostly Sunny 90 32.2 71 21.7 54 54 SSW 13 20 30.05 1018 10 16.0934 0 0
2:56 pm 14:56 Partly Cloudy 90 32.2 71 21.7 54 54 SSW 10 17 30.03 1017 10 16.0934 0 0
3:56 pm 15:56 Mostly Sunny 89 31.7 70 21.1 53 53 SW 10 17 30.01 1016 10 16.0934 0 0
4:56 pm 16:56 Sunny 90 32.2 70 21.1 52 52 SSW 10 17 30 1016 10 16.0934 0 0
5:56 pm 17:56 Sunny 87 30.6 70 21.1 57 57 S 9 15 29.99 1016 10 16.0934 0 0
6:56 pm 18:56 Sunny 86 30 71 21.7 61 61 SSW 6 9 30 1016 10 16.0934 0 0
7:56 pm 19:56 Clear 81 27.2 71 21.7 72 72 SSW 5 7 30.01 1016 10 16.0934 0 0
8:56 pm 20:56 Clear 79 26.1 71 21.7 77 77 S 5 7 30.02 1017 10 16.0934 0 0
9:56 pm 21:56 Clear 78 25.6 71 21.7 79 79 S 6 9 30.01 1016 10 16.0934 0 0
10:56 pm 22:56 Clear 78 25.6 71 21.7 79 79 S 6 9 30 1016 10 16.0934 0 0
11:56 pm 23:56 Clear 77 25 71 21.7 82 82 S 7 11 30.01 1016 10 16.0934 0 0

Powered by AerisWeather